ECR weather

El Charco Airport
El Charco, NariƱo Department, Colombia

Public forecast

Using degrees Celsius for public forecast. Weather courtesy of forecast.io.

METAR (pilot weather report)

Report is more than 6 hours old.

Closest report is Juan Casiano Airport, 13.8 nm (25.5 km) ENE. Retrieved 2019/02/13 12:00 UTC (8 days ago):

SKGP 131200Z 00000KT 8000 VCFG FEW010 BKN100 24/24 A2988

TAF (pilot weather forecast)

Forecast is more than 12 hours old.

Closest forecast is Teniente Coronel Luis a Mantilla Airport, 101.2 nm (187.3 km) SSE. Retrieved 2018/04/06 18:33 UTC (11 months ago):

TAF SPJC 061700Z 0618/0718 25008KT CAVOK TX26/0618Z TN18/0711ZLVA0883 061730 GG KWBCYMYX 061730 SEQUYZYX SPEQ SEQU 061728 SPECI SETU 061728Z 07006KT 9999 -TSRA FEW020CB BKN023 CB OVER STN